sensor_id;sensor_type;location;lat;lon;timestamp;temperature;humidity
16823;DHT22;8528;49.976;11.858;2024-02-26T00:02:17;-1.50;99.90
16823;DHT22;8528;49.976;11.858;2024-02-26T00:04:44;-1.50;99.90
16823;DHT22;8528;49.976;11.858;2024-02-26T00:07:11;-1.50;99.90
16823;DHT22;8528;49.976;11.858;2024-02-26T00:09:38;-1.50;99.90
16823;DHT22;8528;49.976;11.858;2024-02-26T00:12:05;-1.50;99.90
16823;DHT22;8528;49.976;11.858;2024-02-26T00:14:32;-1.50;99.90
16823;DHT22;8528;49.976;11.858;2024-02-26T00:17:00;-1.60;99.90
16823;DHT22;8528;49.976;11.858;2024-02-26T00:19:26;-1.50;99.90
16823;DHT22;8528;49.976;11.858;2024-02-26T00:21:55;-1.50;99.90
16823;DHT22;8528;49.976;11.858;2024-02-26T00:24:22;-1.40;99.90
16823;DHT22;8528;49.976;11.858;2024-02-26T00:26:49;-1.50;99.90
16823;DHT22;8528;49.976;11.858;2024-02-26T00:29:20;-1.50;99.90
16823;DHT22;8528;49.976;11.858;2024-02-26T00:31:49;-1.50;99.90
16823;DHT22;8528;49.976;11.858;2024-02-26T00:34:15;-1.50;99.90
16823;DHT22;8528;49.976;11.858;2024-02-26T00:36:42;-1.40;99.90
16823;DHT22;8528;49.976;11.858;2024-02-26T00:39:11;-1.40;99.90
16823;DHT22;8528;49.976;11.858;2024-02-26T00:41:42;-1.40;99.90
16823;DHT22;8528;49.976;11.858;2024-02-26T00:44:10;-1.40;99.90
16823;DHT22;8528;49.976;11.858;2024-02-26T00:46:38;-1.40;99.90
16823;DHT22;8528;49.976;11.858;2024-02-26T00:49:04;-1.40;99.90
16823;DHT22;8528;49.976;11.858;2024-02-26T00:51:32;-1.40;99.90
16823;DHT22;8528;49.976;11.858;2024-02-26T00:53:59;-1.40;99.90
16823;DHT22;8528;49.976;11.858;2024-02-26T00:56:26;-1.40;99.90
16823;DHT22;8528;49.976;11.858;2024-02-26T00:58:53;-1.40;99.90
16823;DHT22;8528;49.976;11.858;2024-02-26T01:01:20;-1.40;99.90
16823;DHT22;8528;49.976;11.858;2024-02-26T01:03:47;-1.40;99.90
16823;DHT22;8528;49.976;11.858;2024-02-26T01:06:15;-1.40;99.90
16823;DHT22;8528;49.976;11.858;2024-02-26T01:08:42;-1.40;99.90
16823;DHT22;8528;49.976;11.858;2024-02-26T01:11:09;-1.40;99.90
16823;DHT22;8528;49.976;11.858;2024-02-26T01:13:36;-1.40;99.90
16823;DHT22;8528;49.976;11.858;2024-02-26T01:16:03;-1.50;99.90
16823;DHT22;8528;49.976;11.858;2024-02-26T01:18:30;-1.50;99.90
16823;DHT22;8528;49.976;11.858;2024-02-26T01:20:58;-1.50;99.90
16823;DHT22;8528;49.976;11.858;2024-02-26T01:23:24;-1.40;99.90
16823;DHT22;8528;49.976;11.858;2024-02-26T01:25:51;-1.30;99.90
16823;DHT22;8528;49.976;11.858;2024-02-26T01:28:18;-1.30;99.90
16823;DHT22;8528;49.976;11.858;2024-02-26T01:30:45;-1.20;99.90
16823;DHT22;8528;49.976;11.858;2024-02-26T01:33:12;-1.10;99.90
16823;DHT22;8528;49.976;11.858;2024-02-26T01:35:40;-1.10;99.90
16823;DHT22;8528;49.976;11.858;2024-02-26T01:38:07;-1.00;99.90
16823;DHT22;8528;49.976;11.858;2024-02-26T01:40:34;-0.90;99.90
16823;DHT22;8528;49.976;11.858;2024-02-26T01:43:01;-0.80;99.90
16823;DHT22;8528;49.976;11.858;2024-02-26T01:45:28;-0.70;99.90
16823;DHT22;8528;49.976;11.858;2024-02-26T01:47:56;-0.60;99.90
16823;DHT22;8528;49.976;11.858;2024-02-26T01:50:24;-0.40;99.90
16823;DHT22;8528;49.976;11.858;2024-02-26T01:52:52;-0.30;99.90
16823;DHT22;8528;49.976;11.858;2024-02-26T01:55:20;-0.30;99.90
16823;DHT22;8528;49.976;11.858;2024-02-26T01:57:50;-0.20;99.90
16823;DHT22;8528;49.976;11.858;2024-02-26T02:00:19;-0.20;99.90
16823;DHT22;8528;49.976;11.858;2024-02-26T02:02:47;-0.20;99.90
16823;DHT22;8528;49.976;11.858;2024-02-26T02:05:16;-0.20;99.90
16823;DHT22;8528;49.976;11.858;2024-02-26T02:07:46;-0.10;99.90
16823;DHT22;8528;49.976;11.858;2024-02-26T02:10:19;-0.10;99.90
16823;DHT22;8528;49.976;11.858;2024-02-26T02:12:50;-0.10;99.90
16823;DHT22;8528;49.976;11.858;2024-02-26T02:15:17;0.00;99.90
16823;DHT22;8528;49.976;11.858;2024-02-26T02:17:45;0.00;99.90
16823;DHT22;8528;49.976;11.858;2024-02-26T02:20:16;0.10;99.90
16823;DHT22;8528;49.976;11.858;2024-02-26T02:22:45;0.10;99.90
16823;DHT22;8528;49.976;11.858;2024-02-26T02:25:13;0.20;99.90
16823;DHT22;8528;49.976;11.858;2024-02-26T02:27:41;0.30;99.90
16823;DHT22;8528;49.976;11.858;2024-02-26T02:30:10;0.30;99.90
16823;DHT22;8528;49.976;11.858;2024-02-26T02:32:39;0.40;99.90
16823;DHT22;8528;49.976;11.858;2024-02-26T02:35:07;0.50;99.90
16823;DHT22;8528;49.976;11.858;2024-02-26T02:37:34;0.40;99.90
16823;DHT22;8528;49.976;11.858;2024-02-26T02:40:02;0.50;99.90
16823;DHT22;8528;49.976;11.858;2024-02-26T02:42:29;0.50;99.90
16823;DHT22;8528;49.976;11.858;2024-02-26T02:44:55;0.50;99.90
16823;DHT22;8528;49.976;11.858;2024-02-26T02:47:23;0.50;99.90
16823;DHT22;8528;49.976;11.858;2024-02-26T02:49:50;0.60;99.90
16823;DHT22;8528;49.976;11.858;2024-02-26T02:52:17;0.50;99.90
16823;DHT22;8528;49.976;11.858;2024-02-26T02:54:44;0.60;99.90
16823;DHT22;8528;49.976;11.858;2024-02-26T02:57:11;0.60;99.90
16823;DHT22;8528;49.976;11.858;2024-02-26T02:59:39;0.70;99.90
16823;DHT22;8528;49.976;11.858;2024-02-26T03:02:06;0.70;99.90
16823;DHT22;8528;49.976;11.858;2024-02-26T03:04:33;0.70;99.90
16823;DHT22;8528;49.976;11.858;2024-02-26T03:07:00;0.80;99.90
16823;DHT22;8528;49.976;11.858;2024-02-26T03:09:28;0.90;99.90
16823;DHT22;8528;49.976;11.858;2024-02-26T03:11:55;0.90;99.90
16823;DHT22;8528;49.976;11.858;2024-02-26T03:14:22;1.00;99.90
16823;DHT22;8528;49.976;11.858;2024-02-26T03:16:49;1.00;99.90
16823;DHT22;8528;49.976;11.858;2024-02-26T03:19:16;1.00;99.90
16823;DHT22;8528;49.976;11.858;2024-02-26T03:21:43;0.90;99.90
16823;DHT22;8528;49.976;11.858;2024-02-26T03:24:10;1.00;99.90
16823;DHT22;8528;49.976;11.858;2024-02-26T03:26:38;1.10;99.90
16823;DHT22;8528;49.976;11.858;2024-02-26T03:29:05;1.10;99.90
16823;DHT22;8528;49.976;11.858;2024-02-26T03:31:32;1.10;99.90
16823;DHT22;8528;49.976;11.858;2024-02-26T03:33:59;1.20;99.90
16823;DHT22;8528;49.976;11.858;2024-02-26T03:36:26;1.20;99.90
16823;DHT22;8528;49.976;11.858;2024-02-26T03:38:53;1.20;99.90
16823;DHT22;8528;49.976;11.858;2024-02-26T03:41:20;1.20;99.90
16823;DHT22;8528;49.976;11.858;2024-02-26T03:43:47;1.30;99.90
16823;DHT22;8528;49.976;11.858;2024-02-26T03:46:14;1.30;99.90
16823;DHT22;8528;49.976;11.858;2024-02-26T03:48:41;1.30;99.90
16823;DHT22;8528;49.976;11.858;2024-02-26T03:51:09;1.30;99.90
16823;DHT22;8528;49.976;11.858;2024-02-26T03:53:37;1.30;99.90
16823;DHT22;8528;49.976;11.858;2024-02-26T03:56:05;1.30;99.90
16823;DHT22;8528;49.976;11.858;2024-02-26T03:58:32;1.40;99.90
16823;DHT22;8528;49.976;11.858;2024-02-26T04:01:00;1.40;99.90
16823;DHT22;8528;49.976;11.858;2024-02-26T04:03:27;1.40;99.90
16823;DHT22;8528;49.976;11.858;2024-02-26T04:05:54;1.30;99.90
16823;DHT22;8528;49.976;11.858;2024-02-26T04:08:21;1.40;99.90
16823;DHT22;8528;49.976;11.858;2024-02-26T04:10:48;1.40;99.90
16823;DHT22;8528;49.976;11.858;2024-02-26T04:13:14;1.40;99.90
16823;DHT22;8528;49.976;11.858;2024-02-26T04:15:41;1.40;99.90
16823;DHT22;8528;49.976;11.858;2024-02-26T04:18:08;1.50;99.90
16823;DHT22;8528;49.976;11.858;2024-02-26T04:20:35;1.50;99.90
16823;DHT22;8528;49.976;11.858;2024-02-26T04:23:03;1.50;99.90
16823;DHT22;8528;49.976;11.858;2024-02-26T04:25:30;1.50;99.90
16823;DHT22;8528;49.976;11.858;2024-02-26T04:27:57;1.50;99.90
16823;DHT22;8528;49.976;11.858;2024-02-26T04:30:24;1.50;99.90
16823;DHT22;8528;49.976;11.858;2024-02-26T04:32:51;1.60;99.90
16823;DHT22;8528;49.976;11.858;2024-02-26T04:35:18;1.50;99.90
16823;DHT22;8528;49.976;11.858;2024-02-26T04:37:45;1.60;99.90
16823;DHT22;8528;49.976;11.858;2024-02-26T04:40:12;1.60;99.90
16823;DHT22;8528;49.976;11.858;2024-02-26T04:42:39;1.60;99.90
16823;DHT22;8528;49.976;11.858;2024-02-26T04:45:06;1.70;99.90
16823;DHT22;8528;49.976;11.858;2024-02-26T04:47:34;1.70;99.90
16823;DHT22;8528;49.976;11.858;2024-02-26T04:50:02;1.70;99.90
16823;DHT22;8528;49.976;11.858;2024-02-26T04:52:29;1.70;99.90
16823;DHT22;8528;49.976;11.858;2024-02-26T04:54:56;1.70;99.90
16823;DHT22;8528;49.976;11.858;2024-02-26T04:57:22;1.70;99.90
16823;DHT22;8528;49.976;11.858;2024-02-26T04:59:50;1.70;99.90
16823;DHT22;8528;49.976;11.858;2024-02-26T05:02:16;1.70;99.90
16823;DHT22;8528;49.976;11.858;2024-02-26T05:04:43;1.70;99.90
16823;DHT22;8528;49.976;11.858;2024-02-26T05:07:11;1.70;99.90
16823;DHT22;8528;49.976;11.858;2024-02-26T05:09:40;1.80;99.90
16823;DHT22;8528;49.976;11.858;2024-02-26T05:12:08;1.80;99.90
16823;DHT22;8528;49.976;11.858;2024-02-26T05:14:35;1.80;99.90
16823;DHT22;8528;49.976;11.858;2024-02-26T05:17:02;1.80;99.90
16823;DHT22;8528;49.976;11.858;2024-02-26T05:19:29;1.80;99.90
16823;DHT22;8528;49.976;11.858;2024-02-26T05:21:56;1.80;99.90
16823;DHT22;8528;49.976;11.858;2024-02-26T05:24:23;1.90;99.90
16823;DHT22;8528;49.976;11.858;2024-02-26T05:26:50;1.80;99.90
16823;DHT22;8528;49.976;11.858;2024-02-26T05:29:17;1.80;99.90
16823;DHT22;8528;49.976;11.858;2024-02-26T05:31:44;1.90;99.90
16823;DHT22;8528;49.976;11.858;2024-02-26T05:34:11;1.80;99.90
16823;DHT22;8528;49.976;11.858;2024-02-26T05:36:38;1.80;99.90
16823;DHT22;8528;49.976;11.858;2024-02-26T05:39:05;1.90;99.90
16823;DHT22;8528;49.976;11.858;2024-02-26T05:41:32;1.90;99.90
16823;DHT22;8528;49.976;11.858;2024-02-26T05:43:59;1.90;99.90
16823;DHT22;8528;49.976;11.858;2024-02-26T05:46:26;2.00;99.90
16823;DHT22;8528;49.976;11.858;2024-02-26T05:48:54;1.90;99.90
16823;DHT22;8528;49.976;11.858;2024-02-26T05:51:21;1.90;99.90
16823;DHT22;8528;49.976;11.858;2024-02-26T05:53:48;1.90;99.90
16823;DHT22;8528;49.976;11.858;2024-02-26T05:56:22;1.90;99.90
16823;DHT22;8528;49.976;11.858;2024-02-26T05:58:49;2.00;99.90
16823;DHT22;8528;49.976;11.858;2024-02-26T06:01:16;1.90;99.90
16823;DHT22;8528;49.976;11.858;2024-02-26T06:03:44;1.90;99.90
16823;DHT22;8528;49.976;11.858;2024-02-26T06:06:11;2.00;99.90
16823;DHT22;8528;49.976;11.858;2024-02-26T06:08:39;2.00;99.90
16823;DHT22;8528;49.976;11.858;2024-02-26T06:11:06;2.10;99.90
16823;DHT22;8528;49.976;11.858;2024-02-26T06:13:34;2.10;99.90
16823;DHT22;8528;49.976;11.858;2024-02-26T06:16:01;2.00;99.90
16823;DHT22;8528;49.976;11.858;2024-02-26T06:18:28;2.00;99.90
16823;DHT22;8528;49.976;11.858;2024-02-26T06:20:56;2.10;99.90
16823;DHT22;8528;49.976;11.858;2024-02-26T06:23:23;2.10;99.90
16823;DHT22;8528;49.976;11.858;2024-02-26T06:25:50;2.20;99.90
16823;DHT22;8528;49.976;11.858;2024-02-26T06:28:17;2.20;99.90
16823;DHT22;8528;49.976;11.858;2024-02-26T06:30:44;2.30;99.90
16823;DHT22;8528;49.976;11.858;2024-02-26T06:33:11;2.40;99.90
16823;DHT22;8528;49.976;11.858;2024-02-26T06:35:38;2.50;99.90
16823;DHT22;8528;49.976;11.858;2024-02-26T06:38:05;2.60;99.90
16823;DHT22;8528;49.976;11.858;2024-02-26T06:40:32;2.70;99.90
16823;DHT22;8528;49.976;11.858;2024-02-26T06:42:59;2.80;99.90
16823;DHT22;8528;49.976;11.858;2024-02-26T06:45:25;2.80;99.90
16823;DHT22;8528;49.976;11.858;2024-02-26T06:47:53;2.80;99.90
16823;DHT22;8528;49.976;11.858;2024-02-26T06:50:19;2.80;99.90
16823;DHT22;8528;49.976;11.858;2024-02-26T06:52:46;2.90;99.90
16823;DHT22;8528;49.976;11.858;2024-02-26T06:55:14;2.90;99.90
16823;DHT22;8528;49.976;11.858;2024-02-26T06:57:41;3.00;99.90
16823;DHT22;8528;49.976;11.858;2024-02-26T07:00:08;3.00;99.90
16823;DHT22;8528;49.976;11.858;2024-02-26T07:02:35;3.20;99.90
16823;DHT22;8528;49.976;11.858;2024-02-26T07:05:05;3.20;99.90
16823;DHT22;8528;49.976;11.858;2024-02-26T07:07:32;3.40;99.90
16823;DHT22;8528;49.976;11.858;2024-02-26T07:09:59;3.50;99.90
16823;DHT22;8528;49.976;11.858;2024-02-26T07:12:27;3.80;99.90
16823;DHT22;8528;49.976;11.858;2024-02-26T07:14:54;4.00;99.90
16823;DHT22;8528;49.976;11.858;2024-02-26T07:17:20;4.20;99.90
16823;DHT22;8528;49.976;11.858;2024-02-26T07:19:47;4.50;99.90
16823;DHT22;8528;49.976;11.858;2024-02-26T07:22:14;4.50;99.90
16823;DHT22;8528;49.976;11.858;2024-02-26T07:24:41;4.60;99.90
16823;DHT22;8528;49.976;11.858;2024-02-26T07:27:08;4.80;99.90
16823;DHT22;8528;49.976;11.858;2024-02-26T07:29:35;5.00;99.90
16823;DHT22;8528;49.976;11.858;2024-02-26T07:32:02;5.20;99.90
16823;DHT22;8528;49.976;11.858;2024-02-26T07:34:28;5.20;99.90
16823;DHT22;8528;49.976;11.858;2024-02-26T07:36:56;5.40;99.90
16823;DHT22;8528;49.976;11.858;2024-02-26T07:39:23;5.70;99.90
16823;DHT22;8528;49.976;11.858;2024-02-26T07:41:50;6.10;99.90
16823;DHT22;8528;49.976;11.858;2024-02-26T07:44:20;6.50;99.90
16823;DHT22;8528;49.976;11.858;2024-02-26T07:46:47;6.90;99.90
16823;DHT22;8528;49.976;11.858;2024-02-26T07:49:13;6.60;99.90
16823;DHT22;8528;49.976;11.858;2024-02-26T07:51:41;6.80;99.90
16823;DHT22;8528;49.976;11.858;2024-02-26T07:54:08;6.80;99.90
16823;DHT22;8528;49.976;11.858;2024-02-26T07:56:35;6.80;99.90
16823;DHT22;8528;49.976;11.858;2024-02-26T07:59:01;6.80;99.90
16823;DHT22;8528;49.976;11.858;2024-02-26T08:01:28;6.80;99.90
16823;DHT22;8528;49.976;11.858;2024-02-26T08:03:55;7.10;99.90
16823;DHT22;8528;49.976;11.858;2024-02-26T08:06:23;7.50;99.90
16823;DHT22;8528;49.976;11.858;2024-02-26T08:08:50;8.00;99.90
16823;DHT22;8528;49.976;11.858;2024-02-26T08:11:17;8.90;99.90
16823;DHT22;8528;49.976;11.858;2024-02-26T08:13:44;9.70;99.90
16823;DHT22;8528;49.976;11.858;2024-02-26T08:16:10;10.30;99.90
16823;DHT22;8528;49.976;11.858;2024-02-26T08:18:38;11.20;99.90
16823;DHT22;8528;49.976;11.858;2024-02-26T08:21:05;11.80;99.90
16823;DHT22;8528;49.976;11.858;2024-02-26T08:23:32;11.90;99.90
16823;DHT22;8528;49.976;11.858;2024-02-26T08:25:59;11.80;99.90
16823;DHT22;8528;49.976;11.858;2024-02-26T08:28:26;12.20;99.90
16823;DHT22;8528;49.976;11.858;2024-02-26T08:30:52;13.50;99.90
16823;DHT22;8528;49.976;11.858;2024-02-26T08:33:19;14.70;99.90
16823;DHT22;8528;49.976;11.858;2024-02-26T08:35:46;15.60;97.90
16823;DHT22;8528;49.976;11.858;2024-02-26T08:38:13;15.50;93.90
16823;DHT22;8528;49.976;11.858;2024-02-26T08:40:41;15.00;93.60
16823;DHT22;8528;49.976;11.858;2024-02-26T08:43:08;14.80;93.50
16823;DHT22;8528;49.976;11.858;2024-02-26T08:45:36;15.20;93.30
16823;DHT22;8528;49.976;11.858;2024-02-26T08:48:03;15.20;92.30
16823;DHT22;8528;49.976;11.858;2024-02-26T08:50:30;14.90;92.50
16823;DHT22;8528;49.976;11.858;2024-02-26T08:52:58;15.00;91.90
16823;DHT22;8528;49.976;11.858;2024-02-26T08:55:25;14.70;92.20
16823;DHT22;8528;49.976;11.858;2024-02-26T08:57:52;14.60;92.30
16823;DHT22;8528;49.976;11.858;2024-02-26T09:00:19;14.60;91.70
16823;DHT22;8528;49.976;11.858;2024-02-26T09:02:48;14.80;92.20
16823;DHT22;8528;49.976;11.858;2024-02-26T09:05:16;15.00;90.90
16823;DHT22;8528;49.976;11.858;2024-02-26T09:07:43;15.70;89.00
16823;DHT22;8528;49.976;11.858;2024-02-26T09:10:10;16.70;86.00
16823;DHT22;8528;49.976;11.858;2024-02-26T09:12:38;17.80;80.00
16823;DHT22;8528;49.976;11.858;2024-02-26T09:15:07;18.70;77.10
16823;DHT22;8528;49.976;11.858;2024-02-26T09:17:34;19.90;70.20
16823;DHT22;8528;49.976;11.858;2024-02-26T09:20:02;20.70;64.00
16823;DHT22;8528;49.976;11.858;2024-02-26T09:22:29;20.90;62.10
16823;DHT22;8528;49.976;11.858;2024-02-26T09:24:56;20.30;61.50
16823;DHT22;8528;49.976;11.858;2024-02-26T09:27:23;20.00;62.10
16823;DHT22;8528;49.976;11.858;2024-02-26T09:29:50;19.80;59.60
16823;DHT22;8528;49.976;11.858;2024-02-26T09:32:17;18.90;60.70
16823;DHT22;8528;49.976;11.858;2024-02-26T09:34:44;18.80;61.90
16823;DHT22;8528;49.976;11.858;2024-02-26T09:37:11;18.80;62.50
16823;DHT22;8528;49.976;11.858;2024-02-26T09:39:47;18.70;62.60
16823;DHT22;8528;49.976;11.858;2024-02-26T09:42:15;18.10;63.90
16823;DHT22;8528;49.976;11.858;2024-02-26T09:44:46;17.70;66.00
16823;DHT22;8528;49.976;11.858;2024-02-26T09:47:14;17.00;68.80
16823;DHT22;8528;49.976;11.858;2024-02-26T09:49:43;16.60;70.80
16823;DHT22;8528;49.976;11.858;2024-02-26T09:52:11;16.00;72.60
16823;DHT22;8528;49.976;11.858;2024-02-26T09:54:39;15.80;74.90
16823;DHT22;8528;49.976;11.858;2024-02-26T09:57:09;15.60;74.70
16823;DHT22;8528;49.976;11.858;2024-02-26T09:59:42;15.20;77.20
16823;DHT22;8528;49.976;11.858;2024-02-26T10:02:14;14.80;79.30
16823;DHT22;8528;49.976;11.858;2024-02-26T10:04:42;14.60;79.80
16823;DHT22;8528;49.976;11.858;2024-02-26T10:07:13;14.40;82.00
16823;DHT22;8528;49.976;11.858;2024-02-26T10:09:41;13.80;83.80
16823;DHT22;8528;49.976;11.858;2024-02-26T10:12:10;13.60;86.00
16823;DHT22;8528;49.976;11.858;2024-02-26T10:14:38;13.60;87.40
16823;DHT22;8528;49.976;11.858;2024-02-26T10:17:07;13.60;89.30
16823;DHT22;8528;49.976;11.858;2024-02-26T10:19:35;13.80;88.90
16823;DHT22;8528;49.976;11.858;2024-02-26T10:22:05;14.20;88.00
16823;DHT22;8528;49.976;11.858;2024-02-26T10:24:32;13.80;83.00
16823;DHT22;8528;49.976;11.858;2024-02-26T10:27:02;13.60;84.70
16823;DHT22;8528;49.976;11.858;2024-02-26T10:29:29;13.60;84.70
16823;DHT22;8528;49.976;11.858;2024-02-26T10:31:56;14.00;83.10
16823;DHT22;8528;49.976;11.858;2024-02-26T10:34:23;13.90;83.10
16823;DHT22;8528;49.976;11.858;2024-02-26T10:36:50;14.30;82.50
16823;DHT22;8528;49.976;11.858;2024-02-26T10:39:20;15.20;82.50
16823;DHT22;8528;49.976;11.858;2024-02-26T10:41:48;16.40;79.20
16823;DHT22;8528;49.976;11.858;2024-02-26T10:44:15;17.60;76.40
16823;DHT22;8528;49.976;11.858;2024-02-26T10:46:47;18.50;69.50
16823;DHT22;8528;49.976;11.858;2024-02-26T10:49:16;19.40;66.20
16823;DHT22;8528;49.976;11.858;2024-02-26T10:51:54;20.00;63.60
16823;DHT22;8528;49.976;11.858;2024-02-26T10:54:25;20.60;62.50
16823;DHT22;8528;49.976;11.858;2024-02-26T10:56:53;21.10;60.70
16823;DHT22;8528;49.976;11.858;2024-02-26T10:59:23;21.90;56.70
16823;DHT22;8528;49.976;11.858;2024-02-26T11:01:50;21.50;57.50
16823;DHT22;8528;49.976;11.858;2024-02-26T11:04:18;21.40;57.00
16823;DHT22;8528;49.976;11.858;2024-02-26T11:06:46;21.50;57.40
16823;DHT22;8528;49.976;11.858;2024-02-26T11:09:15;21.60;55.70
16823;DHT22;8528;49.976;11.858;2024-02-26T11:11:42;21.10;55.70
16823;DHT22;8528;49.976;11.858;2024-02-26T11:14:09;20.90;57.20
16823;DHT22;8528;49.976;11.858;2024-02-26T11:16:37;20.50;58.40
16823;DHT22;8528;49.976;11.858;2024-02-26T11:19:06;19.10;57.90
16823;DHT22;8528;49.976;11.858;2024-02-26T11:21:35;17.90;61.30
16823;DHT22;8528;49.976;11.858;2024-02-26T11:24:09;17.30;64.70
16823;DHT22;8528;49.976;11.858;2024-02-26T11:26:43;17.00;63.20
16823;DHT22;8528;49.976;11.858;2024-02-26T11:29:14;17.30;63.40
16823;DHT22;8528;49.976;11.858;2024-02-26T11:31:42;17.10;64.90
16823;DHT22;8528;49.976;11.858;2024-02-26T11:34:10;16.40;66.80
16823;DHT22;8528;49.976;11.858;2024-02-26T11:36:38;16.50;70.00
16823;DHT22;8528;49.976;11.858;2024-02-26T11:39:06;15.90;66.50
16823;DHT22;8528;49.976;11.858;2024-02-26T11:41:33;15.40;68.00
16823;DHT22;8528;49.976;11.858;2024-02-26T11:44:03;15.20;69.00
16823;DHT22;8528;49.976;11.858;2024-02-26T11:46:42;15.10;69.50
16823;DHT22;8528;49.976;11.858;2024-02-26T11:51:56;14.00;75.50
16823;DHT22;8528;49.976;11.858;2024-02-26T11:54:46;13.30;78.20
16823;DHT22;8528;49.976;11.858;2024-02-26T11:59:47;13.20;81.00
16823;DHT22;8528;49.976;11.858;2024-02-26T12:02:39;13.10;80.50
16823;DHT22;8528;49.976;11.858;2024-02-26T12:05:17;13.00;82.90
16823;DHT22;8528;49.976;11.858;2024-02-26T12:07:48;13.20;82.90
16823;DHT22;8528;49.976;11.858;2024-02-26T12:12:59;13.00;84.30
16823;DHT22;8528;49.976;11.858;2024-02-26T12:15:31;12.70;87.20
16823;DHT22;8528;49.976;11.858;2024-02-26T12:18:04;12.70;88.30
16823;DHT22;8528;49.976;11.858;2024-02-26T12:20:31;12.80;88.90
16823;DHT22;8528;49.976;11.858;2024-02-26T12:22:58;12.90;88.60
16823;DHT22;8528;49.976;11.858;2024-02-26T12:25:27;13.10;89.80
16823;DHT22;8528;49.976;11.858;2024-02-26T12:27:54;12.80;88.00
16823;DHT22;8528;49.976;11.858;2024-02-26T12:30:22;12.70;89.80
16823;DHT22;8528;49.976;11.858;2024-02-26T12:32:50;12.30;90.00
16823;DHT22;8528;49.976;11.858;2024-02-26T12:35:17;12.30;90.30
16823;DHT22;8528;49.976;11.858;2024-02-26T12:37:45;12.60;91.00
16823;DHT22;8528;49.976;11.858;2024-02-26T12:40:12;12.70;90.10
16823;DHT22;8528;49.976;11.858;2024-02-26T12:42:40;12.90;89.90
16823;DHT22;8528;49.976;11.858;2024-02-26T12:45:11;13.00;89.40
16823;DHT22;8528;49.976;11.858;2024-02-26T12:47:39;13.00;89.00
16823;DHT22;8528;49.976;11.858;2024-02-26T12:50:07;13.40;89.00
16823;DHT22;8528;49.976;11.858;2024-02-26T12:52:39;13.50;88.80
16823;DHT22;8528;49.976;11.858;2024-02-26T12:55:06;13.70;88.80
16823;DHT22;8528;49.976;11.858;2024-02-26T12:57:40;13.70;89.40
16823;DHT22;8528;49.976;11.858;2024-02-26T13:00:12;13.30;85.40
16823;DHT22;8528;49.976;11.858;2024-02-26T13:02:42;13.10;87.00
16823;DHT22;8528;49.976;11.858;2024-02-26T13:05:12;13.10;84.30
16823;DHT22;8528;49.976;11.858;2024-02-26T13:07:46;13.10;85.10
16823;DHT22;8528;49.976;11.858;2024-02-26T13:10:18;13.60;84.70
16823;DHT22;8528;49.976;11.858;2024-02-26T13:12:49;13.80;82.30
16823;DHT22;8528;49.976;11.858;2024-02-26T13:15:19;13.50;82.80
16823;DHT22;8528;49.976;11.858;2024-02-26T13:17:47;13.90;80.80
16823;DHT22;8528;49.976;11.858;2024-02-26T13:20:33;13.40;77.30
16823;DHT22;8528;49.976;11.858;2024-02-26T13:23:05;12.50;78.80
16823;DHT22;8528;49.976;11.858;2024-02-26T13:25:34;12.30;81.70
16823;DHT22;8528;49.976;11.858;2024-02-26T13:28:15;12.40;82.50
16823;DHT22;8528;49.976;11.858;2024-02-26T13:30:53;12.20;81.20
16823;DHT22;8528;49.976;11.858;2024-02-26T13:33:23;12.20;82.10
16823;DHT22;8528;49.976;11.858;2024-02-26T13:35:51;11.80;82.30
16823;DHT22;8528;49.976;11.858;2024-02-26T13:38:18;11.50;83.50
16823;DHT22;8528;49.976;11.858;2024-02-26T13:40:45;11.50;84.60
16823;DHT22;8528;49.976;11.858;2024-02-26T13:43:12;11.60;85.10
16823;DHT22;8528;49.976;11.858;2024-02-26T13:45:39;11.70;85.60
16823;DHT22;8528;49.976;11.858;2024-02-26T13:48:07;11.90;84.80
16823;DHT22;8528;49.976;11.858;2024-02-26T13:50:38;11.60;84.70
16823;DHT22;8528;49.976;11.858;2024-02-26T13:53:05;11.60;86.60
16823;DHT22;8528;49.976;11.858;2024-02-26T13:55:32;11.40;90.00
16823;DHT22;8528;49.976;11.858;2024-02-26T13:58:00;11.60;91.20
16823;DHT22;8528;49.976;11.858;2024-02-26T14:00:30;11.90;91.60
16823;DHT22;8528;49.976;11.858;2024-02-26T14:03:01;12.20;91.30
16823;DHT22;8528;49.976;11.858;2024-02-26T14:05:29;12.50;91.10
16823;DHT22;8528;49.976;11.858;2024-02-26T14:07:56;12.50;91.00
16823;DHT22;8528;49.976;11.858;2024-02-26T14:10:24;12.30;90.70
16823;DHT22;8528;49.976;11.858;2024-02-26T14:12:51;12.30;90.80
16823;DHT22;8528;49.976;11.858;2024-02-26T14:15:18;12.60;90.60
16823;DHT22;8528;49.976;11.858;2024-02-26T14:17:44;12.70;89.90
16823;DHT22;8528;49.976;11.858;2024-02-26T14:20:13;12.70;89.10
16823;DHT22;8528;49.976;11.858;2024-02-26T14:22:40;12.60;90.00
16823;DHT22;8528;49.976;11.858;2024-02-26T14:25:06;12.50;90.30
16823;DHT22;8528;49.976;11.858;2024-02-26T14:27:35;12.30;90.60
16823;DHT22;8528;49.976;11.858;2024-02-26T14:30:02;11.90;90.90
16823;DHT22;8528;49.976;11.858;2024-02-26T14:32:29;11.60;91.20
16823;DHT22;8528;49.976;11.858;2024-02-26T14:35:02;11.30;89.00
16823;DHT22;8528;49.976;11.858;2024-02-26T14:37:29;11.00;90.00
16823;DHT22;8528;49.976;11.858;2024-02-26T14:39:56;10.80;91.60
16823;DHT22;8528;49.976;11.858;2024-02-26T14:42:23;10.70;92.20
16823;DHT22;8528;49.976;11.858;2024-02-26T14:44:51;10.80;92.30
16823;DHT22;8528;49.976;11.858;2024-02-26T14:47:18;10.60;88.50
16823;DHT22;8528;49.976;11.858;2024-02-26T14:49:45;10.30;86.80
16823;DHT22;8528;49.976;11.858;2024-02-26T14:52:15;9.90;87.40
16823;DHT22;8528;49.976;11.858;2024-02-26T14:54:41;9.70;87.70
16823;DHT22;8528;49.976;11.858;2024-02-26T14:57:08;9.50;88.80
16823;DHT22;8528;49.976;11.858;2024-02-26T14:59:35;9.60;89.30
16823;DHT22;8528;49.976;11.858;2024-02-26T15:02:03;9.60;87.90
16823;DHT22;8528;49.976;11.858;2024-02-26T15:04:30;9.70;88.00
16823;DHT22;8528;49.976;11.858;2024-02-26T15:06:57;9.60;88.50
16823;DHT22;8528;49.976;11.858;2024-02-26T15:09:24;9.40;89.70
16823;DHT22;8528;49.976;11.858;2024-02-26T15:11:51;9.40;90.90
16823;DHT22;8528;49.976;11.858;2024-02-26T15:14:18;9.40;91.50
16823;DHT22;8528;49.976;11.858;2024-02-26T15:16:45;9.50;92.30
16823;DHT22;8528;49.976;11.858;2024-02-26T15:19:12;9.50;95.60
16823;DHT22;8528;49.976;11.858;2024-02-26T15:21:44;9.40;97.60
16823;DHT22;8528;49.976;11.858;2024-02-26T15:24:11;9.50;99.00
16823;DHT22;8528;49.976;11.858;2024-02-26T15:26:39;9.40;99.90
16823;DHT22;8528;49.976;11.858;2024-02-26T15:29:08;9.40;99.90
16823;DHT22;8528;49.976;11.858;2024-02-26T15:31:36;9.30;99.90
16823;DHT22;8528;49.976;11.858;2024-02-26T15:34:04;9.30;99.90
16823;DHT22;8528;49.976;11.858;2024-02-26T15:36:31;9.20;99.90
16823;DHT22;8528;49.976;11.858;2024-02-26T15:38:58;9.10;99.90
16823;DHT22;8528;49.976;11.858;2024-02-26T15:41:25;8.90;99.90
16823;DHT22;8528;49.976;11.858;2024-02-26T15:43:51;8.80;99.90
16823;DHT22;8528;49.976;11.858;2024-02-26T15:46:18;8.70;99.90
16823;DHT22;8528;49.976;11.858;2024-02-26T15:48:45;8.70;99.90
16823;DHT22;8528;49.976;11.858;2024-02-26T15:51:22;8.60;99.90